createdAt,value
2023-02-04T00:01:37.147Z,5.70
2023-02-04T00:04:22.295Z,5.58
2023-02-04T00:07:07.846Z,5.51
2023-02-04T00:09:52.818Z,5.61
2023-02-04T00:12:38.222Z,5.67
2023-02-04T00:15:23.677Z,5.73
2023-02-04T00:18:11.948Z,5.65
2023-02-04T00:20:57.201Z,5.70
2023-02-04T00:23:42.237Z,5.63
2023-02-04T00:26:27.383Z,5.65
2023-02-04T00:29:13.037Z,5.74
2023-02-04T00:31:58.304Z,5.65
2023-02-04T00:34:43.724Z,5.69
2023-02-04T00:37:28.758Z,5.71
2023-02-04T00:40:13.875Z,5.76
2023-02-04T00:42:59.719Z,5.72
2023-02-04T00:45:44.630Z,5.72
2023-02-04T00:48:29.881Z,5.71
2023-02-04T00:51:15.306Z,5.70
2023-02-04T00:54:00.579Z,5.73
2023-02-04T00:56:45.999Z,5.67
2023-02-04T00:59:30.949Z,5.73
2023-02-04T01:02:18.323Z,5.68
2023-02-04T01:05:03.658Z,5.67
2023-02-04T01:07:49.093Z,5.64
2023-02-04T01:10:34.579Z,5.74
2023-02-04T01:13:20.023Z,5.75
2023-02-04T01:16:05.716Z,5.78
2023-02-04T01:18:50.605Z,5.84
2023-02-04T01:21:35.577Z,5.89
2023-02-04T01:24:20.510Z,5.88
2023-02-04T01:27:05.533Z,5.81
2023-02-04T01:29:50.577Z,5.79
2023-02-04T01:32:36.111Z,5.89
2023-02-04T01:35:21.078Z,5.84
2023-02-04T01:38:06.005Z,5.84
2023-02-04T01:40:51.108Z,5.81
2023-02-04T01:43:36.356Z,5.90
2023-02-04T01:46:21.856Z,5.90
2023-02-04T01:49:07.258Z,5.91
2023-02-04T01:51:52.550Z,5.90
2023-02-04T01:54:37.797Z,5.83
2023-02-04T01:57:22.889Z,5.83
2023-02-04T02:00:17.771Z,5.80
2023-02-04T02:03:03.033Z,5.74
2023-02-04T02:05:50.902Z,5.66
2023-02-04T02:08:37.393Z,5.66
2023-02-04T02:11:22.402Z,5.59
2023-02-04T02:14:08.140Z,5.64
2023-02-04T02:16:53.821Z,5.66
2023-02-04T02:19:41.027Z,5.65
2023-02-04T02:22:42.253Z,5.66
2023-02-04T02:25:27.664Z,5.67
2023-02-04T02:28:18.510Z,5.65
2023-02-04T02:31:04.198Z,5.59
2023-02-04T02:33:49.408Z,5.55
2023-02-04T02:36:34.778Z,5.60
2023-02-04T02:39:19.908Z,5.62
2023-02-04T02:42:05.209Z,5.69
2023-02-04T02:44:51.766Z,5.68
2023-02-04T02:47:36.791Z,5.64
2023-02-04T02:50:26.058Z,5.71
2023-02-04T02:53:17.099Z,5.73
2023-02-04T02:56:02.798Z,5.68
2023-02-04T02:58:48.071Z,5.69
2023-02-04T03:01:33.808Z,5.60
2023-02-04T03:04:20.176Z,5.64
2023-02-04T03:07:05.777Z,5.53
2023-02-04T03:09:51.126Z,5.59
2023-02-04T03:12:37.172Z,5.60
2023-02-04T03:15:22.217Z,5.62
2023-02-04T03:18:07.773Z,5.64
2023-02-04T03:20:53.390Z,5.64
2023-02-04T03:23:38.881Z,5.66
2023-02-04T03:26:25.143Z,5.61
2023-02-04T03:29:11.081Z,5.56
2023-02-04T03:31:56.407Z,5.55
2023-02-04T03:34:41.511Z,5.62
2023-02-04T03:37:26.553Z,5.64
2023-02-04T03:40:12.956Z,5.63
2023-02-04T03:42:58.071Z,5.63
2023-02-04T03:45:45.634Z,5.58
2023-02-04T03:48:31.125Z,5.54
2023-02-04T03:51:16.364Z,5.53
2023-02-04T03:54:01.490Z,5.60
2023-02-04T03:56:46.704Z,5.64
2023-02-04T03:59:31.503Z,5.62
2023-02-04T04:02:16.450Z,5.49
2023-02-04T04:05:01.365Z,5.49
2023-02-04T04:07:47.122Z,5.47
2023-02-04T04:10:32.668Z,5.52
2023-02-04T04:13:18.096Z,5.46
2023-02-04T04:16:03.816Z,5.46
2023-02-04T04:18:48.800Z,5.49
2023-02-04T04:21:34.222Z,5.54
2023-02-04T04:24:19.454Z,5.54
2023-02-04T04:27:04.299Z,5.44
2023-02-04T04:29:49.730Z,5.52
2023-02-04T04:32:34.876Z,5.42
2023-02-04T04:35:20.008Z,5.42
2023-02-04T04:38:05.272Z,5.51
2023-02-04T04:40:50.815Z,5.54
2023-02-04T04:43:36.149Z,5.32
2023-02-04T04:46:21.530Z,5.19
2023-02-04T04:49:07.096Z,5.17
2023-02-04T04:51:52.125Z,5.16
2023-02-04T04:54:37.168Z,5.01
2023-02-04T04:57:22.773Z,5.02
2023-02-04T05:00:08.742Z,4.98
2023-02-04T05:02:54.209Z,4.85
2023-02-04T05:05:39.525Z,4.98
2023-02-04T05:08:24.983Z,5.04
2023-02-04T05:11:10.420Z,4.83
2023-02-04T05:13:55.457Z,4.67
2023-02-04T05:16:40.624Z,4.62
2023-02-04T05:19:25.770Z,4.57
2023-02-04T05:22:11.241Z,4.53
2023-02-04T05:24:56.403Z,4.81
2023-02-04T05:27:41.664Z,4.86
2023-02-04T05:30:27.167Z,4.61
2023-02-04T05:33:12.700Z,4.69
2023-02-04T05:35:58.012Z,4.58
2023-02-04T05:38:43.823Z,4.62
2023-02-04T05:41:29.018Z,4.64
2023-02-04T05:44:14.251Z,4.79
2023-02-04T05:46:59.320Z,4.70
2023-02-04T05:49:44.766Z,4.57
2023-02-04T05:52:30.074Z,4.44
2023-02-04T05:55:14.992Z,4.36
2023-02-04T05:57:59.894Z,4.33
2023-02-04T06:00:45.171Z,4.32
2023-02-04T06:03:31.580Z,4.44
2023-02-04T06:06:17.018Z,4.41
2023-02-04T06:09:02.370Z,4.37
2023-02-04T06:11:47.769Z,4.33
2023-02-04T06:14:33.049Z,4.26
2023-02-04T06:17:18.023Z,4.29
2023-02-04T06:20:03.767Z,4.33
2023-02-04T06:22:48.928Z,4.31
2023-02-04T06:25:34.556Z,4.18
2023-02-04T06:28:20.028Z,4.08
2023-02-04T06:31:05.722Z,4.07
2023-02-04T06:33:50.649Z,3.97
2023-02-04T06:36:35.522Z,4.10
2023-02-04T06:39:20.924Z,3.94
2023-02-04T06:42:06.423Z,3.92
2023-02-04T06:44:52.466Z,3.74
2023-02-04T06:47:38.016Z,3.71
2023-02-04T06:50:23.073Z,3.65
2023-02-04T06:53:08.860Z,3.65
2023-02-04T06:55:54.187Z,3.56
2023-02-04T06:58:39.677Z,3.38
2023-02-04T07:01:25.006Z,3.34
2023-02-04T07:04:10.191Z,3.26
2023-02-04T07:06:55.522Z,3.23
2023-02-04T07:09:40.989Z,3.17
2023-02-04T07:12:26.345Z,3.12
2023-02-04T07:15:11.479Z,3.08
2023-02-04T07:17:56.227Z,3.04
2023-02-04T07:20:41.230Z,3.12
2023-02-04T07:23:26.089Z,3.03
2023-02-04T07:26:10.928Z,2.96
2023-02-04T07:28:56.493Z,2.99
2023-02-04T07:31:41.853Z,2.91
2023-02-04T07:34:27.117Z,2.92
2023-02-04T07:37:12.569Z,2.97
2023-02-04T07:39:57.674Z,3.05
2023-02-04T07:42:42.933Z,3.19
2023-02-04T07:45:28.374Z,3.32
2023-02-04T07:48:13.862Z,3.36
2023-02-04T07:50:59.297Z,3.25
2023-02-04T07:53:44.651Z,3.16
2023-02-04T07:56:29.660Z,3.34
2023-02-04T07:59:15.200Z,3.43
2023-02-04T08:02:00.247Z,3.61
2023-02-04T08:04:46.095Z,3.73
2023-02-04T08:07:31.234Z,3.93
2023-02-04T08:10:16.875Z,4.11
2023-02-04T08:13:02.182Z,4.08
2023-02-04T08:15:47.600Z,4.31
2023-02-04T08:18:32.879Z,4.37
2023-02-04T08:21:23.512Z,4.41
2023-02-04T08:24:08.876Z,4.34
2023-02-04T08:26:54.047Z,4.45
2023-02-04T08:29:39.789Z,4.47
2023-02-04T08:32:24.920Z,4.59
2023-02-04T08:35:10.027Z,4.78
2023-02-04T08:37:55.292Z,4.87
2023-02-04T08:40:40.895Z,4.90
2023-02-04T08:43:26.894Z,4.92
2023-02-04T08:46:12.152Z,4.98
2023-02-04T08:48:57.437Z,5.08
2023-02-04T08:51:42.729Z,5.06
2023-02-04T08:54:28.033Z,5.17
2023-02-04T08:57:13.465Z,5.20
2023-02-04T08:59:58.742Z,5.20
2023-02-04T09:02:44.581Z,5.25
2023-02-04T09:05:29.821Z,5.18
2023-02-04T09:08:14.581Z,5.22
2023-02-04T09:11:00.041Z,5.29
2023-02-04T09:13:45.460Z,5.32
2023-02-04T09:16:31.270Z,5.13
2023-02-04T09:19:16.316Z,5.00
2023-02-04T09:22:01.290Z,4.93
2023-02-04T09:24:46.026Z,5.09
2023-02-04T09:27:31.547Z,5.13
2023-02-04T09:30:17.161Z,5.39
2023-02-04T09:33:02.408Z,5.30
2023-02-04T09:35:47.265Z,5.45
2023-02-04T09:38:32.703Z,5.76
2023-02-04T09:41:18.156Z,5.84
2023-02-04T09:44:04.920Z,6.12
2023-02-04T09:46:53.711Z,5.89
2023-02-04T09:49:39.469Z,5.87
2023-02-04T09:52:27.410Z,5.90
2023-02-04T09:55:18.165Z,6.05
2023-02-04T09:58:05.964Z,5.93
2023-02-04T10:01:09.136Z,6.05
2023-02-04T10:03:56.463Z,6.05
2023-02-04T10:06:43.522Z,6.22
2023-02-04T10:09:28.970Z,6.07
2023-02-04T10:12:14.545Z,6.34
2023-02-04T10:14:59.793Z,6.37
2023-02-04T10:17:47.605Z,6.56
2023-02-04T10:20:33.186Z,6.54
2023-02-04T10:23:18.533Z,6.57
2023-02-04T10:26:04.519Z,6.63
2023-02-04T10:28:49.518Z,6.94
2023-02-04T10:31:40.536Z,7.11
2023-02-04T10:34:36.302Z,7.19
2023-02-04T10:37:22.568Z,7.02
2023-02-04T10:40:31.980Z,7.37
2023-02-04T10:43:22.013Z,7.36
2023-02-04T10:46:07.381Z,7.19
2023-02-04T10:48:52.583Z,8.00
2023-02-04T10:51:38.087Z,8.20
2023-02-04T10:54:27.829Z,7.73
2023-02-04T10:57:30.251Z,7.72
2023-02-04T11:00:17.686Z,7.49
2023-02-04T11:03:12.118Z,7.02
2023-02-04T11:05:59.296Z,7.12
2023-02-04T11:08:44.768Z,7.25
2023-02-04T11:11:30.178Z,7.40
2023-02-04T11:14:27.595Z,7.23
2023-02-04T11:17:20.588Z,7.63
2023-02-04T11:20:17.247Z,7.86
2023-02-04T11:23:27.067Z,7.62
2023-02-04T11:26:18.360Z,8.09
2023-02-04T11:29:04.446Z,8.08
2023-02-04T11:31:50.039Z,8.12
2023-02-04T11:34:53.442Z,7.29
2023-02-04T11:37:41.314Z,7.75
2023-02-04T11:40:35.596Z,7.79
2023-02-04T11:43:21.948Z,7.87
2023-02-04T11:46:16.124Z,7.89
2023-02-04T11:49:01.205Z,8.18
2023-02-04T11:51:46.542Z,8.02
2023-02-04T11:54:31.644Z,7.90
2023-02-04T11:57:17.412Z,8.30
2023-02-04T12:00:02.760Z,8.53
2023-02-04T12:02:50.782Z,8.48
2023-02-04T12:05:44.405Z,8.50
2023-02-04T12:08:35.423Z,8.62
2023-02-04T12:11:28.104Z,8.34
2023-02-04T12:14:17.735Z,8.15
2023-02-04T12:17:16.337Z,8.12
2023-02-04T12:20:01.783Z,8.42
2023-02-04T12:22:46.660Z,8.52
2023-02-04T12:25:32.334Z,8.51
2023-02-04T12:28:17.571Z,8.77
2023-02-04T12:31:03.172Z,9.02
2023-02-04T12:33:48.146Z,8.27
2023-02-04T12:36:33.153Z,7.83
2023-02-04T12:39:18.462Z,8.34
2023-02-04T12:42:04.048Z,8.78
2023-02-04T12:44:49.240Z,8.77
2023-02-04T12:47:34.203Z,8.56
2023-02-04T12:50:21.009Z,8.57
2023-02-04T12:53:05.978Z,8.59
2023-02-04T12:55:51.740Z,8.73
2023-02-04T12:58:37.081Z,9.42
2023-02-04T13:01:22.354Z,9.47
2023-02-04T13:04:07.837Z,9.75
2023-02-04T13:06:53.149Z,9.67
2023-02-04T13:09:38.624Z,10.07
2023-02-04T13:12:24.019Z,9.55
2023-02-04T13:15:10.309Z,9.07
2023-02-04T13:17:55.752Z,9.13
2023-02-04T13:20:41.321Z,8.44
2023-02-04T13:23:26.637Z,8.73
2023-02-04T13:26:11.894Z,10.22
2023-02-04T13:28:57.395Z,9.62
2023-02-04T13:31:43.042Z,9.74
2023-02-04T13:34:28.755Z,8.66
2023-02-04T13:37:14.206Z,9.02
2023-02-04T13:39:59.160Z,9.18
2023-02-04T13:42:44.553Z,8.73
2023-02-04T13:45:30.722Z,8.63
2023-02-04T13:48:16.677Z,8.91
2023-02-04T13:51:02.145Z,8.38
2023-02-04T13:53:47.105Z,8.79
2023-02-04T13:56:32.396Z,9.15
2023-02-04T13:59:17.254Z,9.33
2023-02-04T14:02:02.791Z,9.55
2023-02-04T14:04:47.938Z,8.78
2023-02-04T14:07:33.110Z,8.44
2023-02-04T14:10:18.592Z,8.74
2023-02-04T14:13:03.586Z,9.03
2023-02-04T14:15:49.026Z,8.51
2023-02-04T14:18:34.401Z,8.19
2023-02-04T14:21:19.344Z,7.60
2023-02-04T14:24:04.971Z,7.59
2023-02-04T14:26:50.670Z,7.22
2023-02-04T14:29:39.075Z,7.21
2023-02-04T14:32:24.425Z,7.13
2023-02-04T14:35:09.585Z,7.23
2023-02-04T14:37:54.799Z,7.19
2023-02-04T14:40:39.553Z,6.55
2023-02-04T14:43:24.620Z,6.70
2023-02-04T14:46:09.841Z,6.64
2023-02-04T14:48:55.205Z,6.61
2023-02-04T14:51:41.256Z,6.56
2023-02-04T14:54:26.547Z,6.62
2023-02-04T14:57:12.228Z,6.73
2023-02-04T14:59:57.575Z,6.75
2023-02-04T15:02:43.538Z,7.09
2023-02-04T15:05:29.036Z,7.27
2023-02-04T15:08:14.253Z,7.17
2023-02-04T15:10:59.431Z,7.09
2023-02-04T15:13:44.768Z,7.07
2023-02-04T15:16:30.749Z,6.97
2023-02-04T15:19:17.506Z,7.05
2023-02-04T15:22:02.583Z,6.69
2023-02-04T15:24:47.980Z,6.87
2023-02-04T15:27:32.872Z,6.83
2023-02-04T15:30:17.915Z,6.77
2023-02-04T15:33:03.161Z,6.78
2023-02-04T15:35:48.422Z,6.68
2023-02-04T15:38:35.167Z,6.60
2023-02-04T15:41:20.404Z,6.49
2023-02-04T15:44:06.091Z,6.42
2023-02-04T15:46:50.965Z,6.60
2023-02-04T15:49:36.388Z,6.53
2023-02-04T15:52:25.256Z,6.63
2023-02-04T15:55:10.779Z,6.61
2023-02-04T15:57:56.201Z,6.66
2023-02-04T16:00:44.321Z,6.74
2023-02-04T16:03:29.424Z,6.45
2023-02-04T16:06:14.277Z,6.62
2023-02-04T16:09:00.047Z,6.65
2023-02-04T16:11:45.474Z,6.75
2023-02-04T16:14:30.725Z,6.78
2023-02-04T16:17:15.656Z,6.90
2023-02-04T16:20:01.123Z,6.71
2023-02-04T16:22:46.642Z,6.73
2023-02-04T16:25:32.052Z,6.55
2023-02-04T16:28:17.673Z,6.53
2023-02-04T16:31:02.786Z,6.32
2023-02-04T16:33:48.326Z,6.21
2023-02-04T16:36:33.372Z,6.25
2023-02-04T16:39:18.936Z,6.23
2023-02-04T16:42:07.686Z,6.32
2023-02-04T16:44:52.739Z,6.14
2023-02-04T16:47:38.273Z,6.03
2023-02-04T16:50:23.536Z,6.09
2023-02-04T16:53:08.522Z,6.01
2023-02-04T16:55:53.735Z,6.01
2023-02-04T16:58:39.066Z,5.98
2023-02-04T17:01:24.761Z,5.92
2023-02-04T17:04:10.028Z,6.01
2023-02-04T17:06:55.465Z,6.04
2023-02-04T17:09:40.924Z,5.97
2023-02-04T17:12:27.408Z,5.89
2023-02-04T17:15:12.539Z,5.78
2023-02-04T17:17:57.795Z,5.72
2023-02-04T17:20:43.199Z,5.79
2023-02-04T17:23:28.604Z,5.72
2023-02-04T17:26:13.719Z,5.72
2023-02-04T17:28:59.024Z,5.67
2023-02-04T17:31:44.365Z,5.76
2023-02-04T17:34:29.607Z,5.69
2023-02-04T17:37:14.375Z,5.76
2023-02-04T17:39:59.904Z,5.77
2023-02-04T17:42:45.377Z,5.61
2023-02-04T17:45:31.395Z,5.52
2023-02-04T17:48:17.794Z,5.60
2023-02-04T17:51:03.642Z,5.59
2023-02-04T17:53:48.964Z,5.50
2023-02-04T17:56:34.549Z,5.48
2023-02-04T17:59:19.798Z,5.43
2023-02-04T18:02:22.834Z,5.40
2023-02-04T18:05:14.432Z,5.40
2023-02-04T18:08:05.251Z,5.18
2023-02-04T18:10:53.205Z,5.14
2023-02-04T18:13:38.230Z,5.10
2023-02-04T18:16:27.843Z,5.10
2023-02-04T18:19:26.105Z,5.10
2023-02-04T18:22:18.158Z,5.00
2023-02-04T18:25:12.819Z,4.94
2023-02-04T18:28:02.096Z,4.91
2023-02-04T18:30:53.120Z,4.72
2023-02-04T18:33:38.371Z,4.60
2023-02-04T18:36:24.239Z,4.64
2023-02-04T18:39:18.585Z,4.53
2023-02-04T18:42:15.632Z,4.51
2023-02-04T18:45:19.954Z,4.42
2023-02-04T18:48:20.449Z,4.52
2023-02-04T18:51:23.449Z,4.60
2023-02-04T18:54:20.907Z,4.60
2023-02-04T18:57:12.425Z,4.46
2023-02-04T19:00:23.634Z,4.43
2023-02-04T19:03:24.979Z,4.46
2023-02-04T19:06:25.606Z,4.31
2023-02-04T19:09:10.799Z,4.20
2023-02-04T19:12:16.801Z,4.16
2023-02-04T19:15:14.370Z,4.04
2023-02-04T19:18:17.679Z,4.00
2023-02-04T19:21:21.096Z,3.92
2023-02-04T19:24:15.696Z,3.87
2023-02-04T19:27:01.855Z,3.84
2023-02-04T19:29:48.657Z,3.73
2023-02-04T19:32:57.924Z,3.79
2023-02-04T19:35:43.692Z,3.67
2023-02-04T19:38:40.769Z,3.79
2023-02-04T19:41:30.407Z,3.78
2023-02-04T19:44:15.397Z,3.80
2023-02-04T19:47:19.739Z,3.82
2023-02-04T19:50:13.947Z,3.66
2023-02-04T19:53:03.174Z,3.71
2023-02-04T19:55:52.222Z,3.82
2023-02-04T19:58:42.169Z,3.74
2023-02-04T20:01:27.050Z,3.67
2023-02-04T20:04:20.619Z,3.61
2023-02-04T20:07:21.739Z,3.66
2023-02-04T20:10:06.537Z,3.64
2023-02-04T20:12:58.937Z,3.53
2023-02-04T20:15:44.349Z,3.49
2023-02-04T20:18:29.713Z,3.50
2023-02-04T20:21:14.577Z,3.40
2023-02-04T20:24:00.667Z,3.42
2023-02-04T20:26:45.739Z,3.42
2023-02-04T20:29:34.444Z,3.38
2023-02-04T20:32:20.932Z,3.28
2023-02-04T20:35:09.236Z,3.31
2023-02-04T20:37:59.214Z,3.25
2023-02-04T20:40:44.794Z,3.25
2023-02-04T20:43:34.226Z,3.19
2023-02-04T20:46:25.429Z,3.23
2023-02-04T20:49:22.140Z,3.19
2023-02-04T20:52:42.271Z,3.19
2023-02-04T20:55:34.633Z,3.13
2023-02-04T20:58:27.317Z,3.06
2023-02-04T21:01:35.342Z,3.01
2023-02-04T21:04:29.971Z,3.04
2023-02-04T21:07:22.874Z,2.98
2023-02-04T21:10:08.361Z,2.93
2023-02-04T21:12:56.215Z,2.83
2023-02-04T21:15:41.460Z,2.81
2023-02-04T21:18:27.177Z,2.85
2023-02-04T21:21:14.029Z,2.61
2023-02-04T21:23:59.127Z,2.85
2023-02-04T21:26:44.736Z,2.90
2023-02-04T21:29:30.149Z,2.67
2023-02-04T21:32:15.670Z,2.68
2023-02-04T21:35:00.916Z,2.62
2023-02-04T21:37:46.242Z,2.59
2023-02-04T21:40:32.463Z,2.52
2023-02-04T21:43:17.610Z,2.20
2023-02-04T21:46:02.596Z,2.12
2023-02-04T21:48:47.985Z,2.14
2023-02-04T21:51:33.100Z,2.23
2023-02-04T21:54:18.566Z,2.23
2023-02-04T21:57:03.859Z,2.24
2023-02-04T21:59:49.213Z,2.27
2023-02-04T22:02:40.549Z,2.19
2023-02-04T22:05:26.152Z,2.32
2023-02-04T22:08:11.681Z,2.19
2023-02-04T22:10:56.842Z,2.12
2023-02-04T22:13:42.280Z,2.06
2023-02-04T22:16:27.579Z,2.06
2023-02-04T22:19:12.872Z,1.97
2023-02-04T22:21:58.211Z,1.96
2023-02-04T22:24:43.663Z,1.95
2023-02-04T22:27:28.708Z,2.06
2023-02-04T22:30:16.089Z,1.92
2023-02-04T22:33:01.583Z,2.02
2023-02-04T22:35:47.104Z,1.89
2023-02-04T22:38:32.652Z,1.87
2023-02-04T22:41:17.956Z,1.76
2023-02-04T22:44:03.124Z,1.65
2023-02-04T22:46:48.426Z,1.41
2023-02-04T22:49:33.820Z,1.21
2023-02-04T22:52:18.675Z,1.44
2023-02-04T22:55:04.460Z,1.29
2023-02-04T22:57:49.433Z,1.25
2023-02-04T23:00:34.749Z,1.34
2023-02-04T23:03:20.367Z,1.32
2023-02-04T23:06:06.141Z,0.74
2023-02-04T23:08:51.608Z,0.86
2023-02-04T23:11:36.845Z,0.91
2023-02-04T23:14:22.075Z,1.02
2023-02-04T23:17:07.993Z,1.09
2023-02-04T23:19:53.417Z,1.00
2023-02-04T23:22:38.921Z,1.03
2023-02-04T23:25:24.395Z,0.94
2023-02-04T23:28:09.586Z,0.60
2023-02-04T23:30:55.126Z,0.19
2023-02-04T23:33:40.118Z,0.12
2023-02-04T23:36:25.075Z,0.26
2023-02-04T23:39:10.237Z,0.28
2023-02-04T23:41:55.985Z,0.36
2023-02-04T23:44:41.138Z,0.29
2023-02-04T23:47:26.027Z,0.36
2023-02-04T23:50:11.459Z,0.50
2023-02-04T23:52:56.316Z,0.41
2023-02-04T23:55:41.154Z,0.36
2023-02-04T23:58:26.564Z,0.35
